sensor_id;sensor_type;location;lat;lon;timestamp;pressure;altitude;pressure_sealevel;temperature;humidity
61324;BME280;47203;48.428;11.974;2023-04-16T00:01:13;96521.66;;;11.17;57.15
61324;BME280;47203;48.428;11.974;2023-04-16T00:03:18;96516.66;;;11.16;57.44
61324;BME280;47203;48.428;11.974;2023-04-16T00:05:23;96522.72;;;11.16;57.23
61324;BME280;47203;48.428;11.974;2023-04-16T00:07:28;96514.81;;;11.16;57.54
61324;BME280;47203;48.428;11.974;2023-04-16T00:09:36;96515.63;;;11.17;57.52
61324;BME280;47203;48.428;11.974;2023-04-16T00:11:41;96520.34;;;11.20;57.57
61324;BME280;47203;48.428;11.974;2023-04-16T00:13:46;96521.13;;;11.21;57.43
61324;BME280;47203;48.428;11.974;2023-04-16T00:15:51;96524.25;;;11.23;57.40
61324;BME280;47203;48.428;11.974;2023-04-16T00:17:56;96527.69;;;11.23;57.45
61324;BME280;47203;48.428;11.974;2023-04-16T00:20:02;96531.38;;;11.22;57.15
61324;BME280;47203;48.428;11.974;2023-04-16T00:22:07;96529.03;;;11.21;57.19
61324;BME280;47203;48.428;11.974;2023-04-16T00:24:12;96528.25;;;11.20;57.23
61324;BME280;47203;48.428;11.974;2023-04-16T00:26:19;96530.06;;;11.20;57.36
61324;BME280;47203;48.428;11.974;2023-04-16T00:28:24;96527.72;;;11.18;57.26
61324;BME280;47203;48.428;11.974;2023-04-16T00:30:29;96535.59;;;11.18;57.32
61324;BME280;47203;48.428;11.974;2023-04-16T00:32:34;96540.09;;;11.17;57.18
61324;BME280;47203;48.428;11.974;2023-04-16T00:34:38;96535.38;;;11.14;57.17
61324;BME280;47203;48.428;11.974;2023-04-16T00:36:43;96533.03;;;11.13;57.31
61324;BME280;47203;48.428;11.974;2023-04-16T00:38:48;96528.03;;;11.11;57.43
61324;BME280;47203;48.428;11.974;2023-04-16T00:40:53;96529.06;;;11.10;57.43
61324;BME280;47203;48.428;11.974;2023-04-16T00:43:02;96530.13;;;11.09;57.64
61324;BME280;47203;48.428;11.974;2023-04-16T00:45:08;96531.19;;;11.08;57.67
61324;BME280;47203;48.428;11.974;2023-04-16T00:47:13;96544.09;;;11.10;57.48
61324;BME280;47203;48.428;11.974;2023-04-16T00:49:18;96527.00;;;11.07;57.45
61324;BME280;47203;48.428;11.974;2023-04-16T00:51:24;96529.09;;;11.05;57.40
61324;BME280;47203;48.428;11.974;2023-04-16T00:53:29;96541.47;;;11.05;57.52
61324;BME280;47203;48.428;11.974;2023-04-16T00:55:35;96538.63;;;11.01;57.70
61324;BME280;47203;48.428;11.974;2023-04-16T00:57:40;96538.06;;;10.99;57.60
61324;BME280;47203;48.428;11.974;2023-04-16T00:59:47;96533.34;;;10.96;57.46
61324;BME280;47203;48.428;11.974;2023-04-16T01:01:52;96541.53;;;10.94;57.72
61324;BME280;47203;48.428;11.974;2023-04-16T01:03:57;96540.22;;;10.92;57.65
61324;BME280;47203;48.428;11.974;2023-04-16T01:06:03;96542.63;;;10.88;57.57
61324;BME280;47203;48.428;11.974;2023-04-16T01:08:14;96540.53;;;10.85;57.64
61324;BME280;47203;48.428;11.974;2023-04-16T01:10:19;96539.22;;;10.82;57.45
61324;BME280;47203;48.428;11.974;2023-04-16T01:12:24;96543.94;;;10.80;57.41
61324;BME280;47203;48.428;11.974;2023-04-16T01:14:29;96543.44;;;10.78;57.45
61324;BME280;47203;48.428;11.974;2023-04-16T01:16:39;96546.34;;;10.77;57.74
61324;BME280;47203;48.428;11.974;2023-04-16T01:18:44;96549.75;;;10.77;57.48
61324;BME280;47203;48.428;11.974;2023-04-16T01:20:52;96551.88;;;10.75;57.54
61324;BME280;47203;48.428;11.974;2023-04-16T01:22:57;96546.88;;;10.74;57.80
61324;BME280;47203;48.428;11.974;2023-04-16T01:25:02;96556.09;;;10.71;57.80
61324;BME280;47203;48.428;11.974;2023-04-16T01:27:07;96548.75;;;10.68;57.44
61324;BME280;47203;48.428;11.974;2023-04-16T01:29:12;96554.28;;;10.67;57.55
61324;BME280;47203;48.428;11.974;2023-04-16T01:31:17;96555.59;;;10.64;57.75
61324;BME280;47203;48.428;11.974;2023-04-16T01:33:29;96554.00;;;10.63;57.39
61324;BME280;47203;48.428;11.974;2023-04-16T01:35:34;96554.81;;;10.63;57.56
61324;BME280;47203;48.428;11.974;2023-04-16T01:37:41;96554.28;;;10.61;57.60
61324;BME280;47203;48.428;11.974;2023-04-16T01:39:46;96554.53;;;10.60;57.53
61324;BME280;47203;48.428;11.974;2023-04-16T01:41:51;96550.09;;;10.60;57.54
61324;BME280;47203;48.428;11.974;2023-04-16T01:43:56;96560.34;;;10.62;57.54
61324;BME280;47203;48.428;11.974;2023-04-16T01:46:11;96562.72;;;10.58;57.62
61324;BME280;47203;48.428;11.974;2023-04-16T01:48:17;96564.81;;;10.56;57.28
61324;BME280;47203;48.428;11.974;2023-04-16T01:50:22;96569.03;;;10.52;57.70
61324;BME280;47203;48.428;11.974;2023-04-16T01:52:27;96561.97;;;10.47;57.38
61324;BME280;47203;48.428;11.974;2023-04-16T01:54:35;96564.31;;;10.44;57.47
61324;BME280;47203;48.428;11.974;2023-04-16T01:56:40;96559.84;;;10.44;57.48
61324;BME280;47203;48.428;11.974;2023-04-16T01:58:45;96566.16;;;10.43;57.46
61324;BME280;47203;48.428;11.974;2023-04-16T02:00:51;96565.38;;;10.43;57.66
61324;BME280;47203;48.428;11.974;2023-04-16T02:02:57;96557.50;;;10.43;57.66
61324;BME280;47203;48.428;11.974;2023-04-16T02:05:03;96562.75;;;10.43;57.54
61324;BME280;47203;48.428;11.974;2023-04-16T02:07:09;96556.69;;;10.42;57.37
61324;BME280;47203;48.428;11.974;2023-04-16T02:09:15;96554.06;;;10.42;57.55
61324;BME280;47203;48.428;11.974;2023-04-16T02:11:22;96559.31;;;10.42;57.56
61324;BME280;47203;48.428;11.974;2023-04-16T02:13:28;96556.19;;;10.40;57.31
61324;BME280;47203;48.428;11.974;2023-04-16T02:15:33;96556.97;;;10.41;57.51
61324;BME280;47203;48.428;11.974;2023-04-16T02:17:38;96562.75;;;10.43;57.46
61324;BME280;47203;48.428;11.974;2023-04-16T02:19:44;96561.69;;;10.44;57.34
61324;BME280;47203;48.428;11.974;2023-04-16T02:21:50;96562.75;;;10.43;57.41
61324;BME280;47203;48.428;11.974;2023-04-16T02:23:55;96564.59;;;10.42;57.71
61324;BME280;47203;48.428;11.974;2023-04-16T02:26:03;96567.47;;;10.41;57.47
61324;BME280;47203;48.428;11.974;2023-04-16T02:28:12;96566.72;;;10.40;57.50
61324;BME280;47203;48.428;11.974;2023-04-16T02:30:19;96570.13;;;10.41;57.64
61324;BME280;47203;48.428;11.974;2023-04-16T02:32:25;96569.84;;;10.42;57.68
61324;BME280;47203;48.428;11.974;2023-04-16T02:34:31;96576.44;;;10.45;57.43
61324;BME280;47203;48.428;11.974;2023-04-16T02:36:36;96569.34;;;10.45;57.38
61324;BME280;47203;48.428;11.974;2023-04-16T02:38:41;96567.22;;;10.47;57.32
61324;BME280;47203;48.428;11.974;2023-04-16T02:40:46;96576.69;;;10.48;57.33
61324;BME280;47203;48.428;11.974;2023-04-16T02:42:51;96571.44;;;10.48;57.24
61324;BME280;47203;48.428;11.974;2023-04-16T02:44:59;96571.69;;;10.47;57.35
61324;BME280;47203;48.428;11.974;2023-04-16T02:47:04;96574.06;;;10.48;57.40
61324;BME280;47203;48.428;11.974;2023-04-16T02:49:08;96578.00;;;10.46;57.42
61324;BME280;47203;48.428;11.974;2023-04-16T02:51:13;96578.00;;;10.46;57.30
61324;BME280;47203;48.428;11.974;2023-04-16T02:53:18;96588.53;;;10.46;57.61
61324;BME280;47203;48.428;11.974;2023-04-16T02:55:23;96586.94;;;10.45;57.51
61324;BME280;47203;48.428;11.974;2023-04-16T02:57:30;96588.00;;;10.44;57.56
61324;BME280;47203;48.428;11.974;2023-04-16T02:59:35;96587.22;;;10.43;57.53
61324;BME280;47203;48.428;11.974;2023-04-16T03:01:42;96585.38;;;10.44;57.66
61324;BME280;47203;48.428;11.974;2023-04-16T03:03:47;96584.31;;;10.45;57.45
61324;BME280;47203;48.428;11.974;2023-04-16T03:05:52;96586.94;;;10.45;57.58
61324;BME280;47203;48.428;11.974;2023-04-16T03:07:57;96585.91;;;10.46;57.38
61324;BME280;47203;48.428;11.974;2023-04-16T03:10:02;96587.22;;;10.43;57.64
61324;BME280;47203;48.428;11.974;2023-04-16T03:12:08;96589.06;;;10.43;57.47
61324;BME280;47203;48.428;11.974;2023-04-16T03:14:12;96596.97;;;10.43;57.39
61324;BME280;47203;48.428;11.974;2023-04-16T03:16:17;96598.78;;;10.42;57.69
61324;BME280;47203;48.428;11.974;2023-04-16T03:18:25;96598.00;;;10.42;57.71
61324;BME280;47203;48.428;11.974;2023-04-16T03:20:30;96596.97;;;10.43;57.59
61324;BME280;47203;48.428;11.974;2023-04-16T03:22:35;96601.16;;;10.44;57.60
61324;BME280;47203;48.428;11.974;2023-04-16T03:24:40;96597.47;;;10.45;57.57
61324;BME280;47203;48.428;11.974;2023-04-16T03:26:44;96602.75;;;10.45;57.73
61324;BME280;47203;48.428;11.974;2023-04-16T03:28:49;96607.22;;;10.44;57.80
61324;BME280;47203;48.428;11.974;2023-04-16T03:30:54;96596.97;;;10.43;57.76
61324;BME280;47203;48.428;11.974;2023-04-16T03:32:59;96601.16;;;10.44;57.68
61324;BME280;47203;48.428;11.974;2023-04-16T03:35:08;96599.06;;;10.41;57.65
61324;BME280;47203;48.428;11.974;2023-04-16T03:37:13;96593.28;;;10.39;57.62
61324;BME280;47203;48.428;11.974;2023-04-16T03:39:18;96596.19;;;10.37;57.67
61324;BME280;47203;48.428;11.974;2023-04-16T03:41:23;96597.22;;;10.36;57.81
61324;BME280;47203;48.428;11.974;2023-04-16T03:43:28;96597.75;;;10.38;57.80
61324;BME280;47203;48.428;11.974;2023-04-16T03:45:33;96591.97;;;10.36;57.81
61324;BME280;47203;48.428;11.974;2023-04-16T03:47:38;96600.91;;;10.35;58.06
61324;BME280;47203;48.428;11.974;2023-04-16T03:49:43;96600.91;;;10.35;57.84
61324;BME280;47203;48.428;11.974;2023-04-16T03:51:51;96599.34;;;10.34;58.05
61324;BME280;47203;48.428;11.974;2023-04-16T03:53:56;96601.97;;;10.34;57.90
61324;BME280;47203;48.428;11.974;2023-04-16T03:56:02;96607.25;;;10.34;57.75
61324;BME280;47203;48.428;11.974;2023-04-16T03:58:07;96604.59;;;10.34;57.87
61324;BME280;47203;48.428;11.974;2023-04-16T04:00:12;96603.78;;;10.34;57.79
61324;BME280;47203;48.428;11.974;2023-04-16T04:02:47;96611.16;;;10.31;57.84
61324;BME280;47203;48.428;11.974;2023-04-16T04:04:54;96616.16;;;10.33;57.82
61324;BME280;47203;48.428;11.974;2023-04-16T04:07:01;96613.78;;;10.31;57.89
61324;BME280;47203;48.428;11.974;2023-04-16T04:09:06;96615.38;;;10.33;58.22
61324;BME280;47203;48.428;11.974;2023-04-16T04:11:11;96616.94;;;10.34;57.83
61324;BME280;47203;48.428;11.974;2023-04-16T04:13:18;96617.50;;;10.36;58.21
61324;BME280;47203;48.428;11.974;2023-04-16T04:15:25;96621.94;;;10.35;57.97
61324;BME280;47203;48.428;11.974;2023-04-16T04:17:29;96626.44;;;10.35;58.07
61324;BME280;47203;48.428;11.974;2023-04-16T04:19:35;96629.84;;;10.35;57.94
61324;BME280;47203;48.428;11.974;2023-04-16T04:21:51;96623.03;;;10.34;58.28
61324;BME280;47203;48.428;11.974;2023-04-16T04:23:59;96620.63;;;10.33;57.88
61324;BME280;47203;48.428;11.974;2023-04-16T04:26:04;96623.81;;;10.35;58.18
61324;BME280;47203;48.428;11.974;2023-04-16T04:28:09;96625.38;;;10.36;58.08
61324;BME280;47203;48.428;11.974;2023-04-16T04:30:14;96631.16;;;10.38;58.29
61324;BME280;47203;48.428;11.974;2023-04-16T04:32:18;96626.44;;;10.40;58.08
61324;BME280;47203;48.428;11.974;2023-04-16T04:34:23;96621.69;;;10.42;58.13
61324;BME280;47203;48.428;11.974;2023-04-16T04:36:31;96631.16;;;10.43;58.00
61324;BME280;47203;48.428;11.974;2023-04-16T04:38:36;96636.44;;;10.43;58.04
61324;BME280;47203;48.428;11.974;2023-04-16T04:40:44;96636.94;;;10.45;57.91
61324;BME280;47203;48.428;11.974;2023-04-16T04:42:51;96645.66;;;10.45;58.03
61324;BME280;47203;48.428;11.974;2023-04-16T04:44:57;96645.88;;;10.44;57.84
61324;BME280;47203;48.428;11.974;2023-04-16T04:47:05;96651.97;;;10.44;58.20
61324;BME280;47203;48.428;11.974;2023-04-16T04:49:10;96654.59;;;10.44;58.28
61324;BME280;47203;48.428;11.974;2023-04-16T04:51:14;96650.09;;;10.45;58.14
61324;BME280;47203;48.428;11.974;2023-04-16T04:53:21;96657.22;;;10.44;57.86
61324;BME280;47203;48.428;11.974;2023-04-16T04:55:25;96659.03;;;10.44;58.11
61324;BME280;47203;48.428;11.974;2023-04-16T04:57:35;96669.56;;;10.44;58.25
61324;BME280;47203;48.428;11.974;2023-04-16T04:59:39;96673.28;;;10.43;58.01
61324;BME280;47203;48.428;11.974;2023-04-16T05:01:46;96682.22;;;10.42;57.98
61324;BME280;47203;48.428;11.974;2023-04-16T05:03:51;96676.94;;;10.42;58.01
61324;BME280;47203;48.428;11.974;2023-04-16T05:05:56;96684.84;;;10.42;58.08
61324;BME280;47203;48.428;11.974;2023-04-16T05:08:00;96683.00;;;10.42;58.24
61324;BME280;47203;48.428;11.974;2023-04-16T05:10:07;96689.06;;;10.43;57.99
61324;BME280;47203;48.428;11.974;2023-04-16T05:12:12;96684.84;;;10.42;57.91
61324;BME280;47203;48.428;11.974;2023-04-16T05:14:20;96683.25;;;10.41;58.45
61324;BME280;47203;48.428;11.974;2023-04-16T05:16:25;96687.72;;;10.40;58.32
61324;BME280;47203;48.428;11.974;2023-04-16T05:18:30;96689.59;;;10.40;58.23
61324;BME280;47203;48.428;11.974;2023-04-16T05:20:35;96686.16;;;10.39;58.32
61324;BME280;47203;48.428;11.974;2023-04-16T05:22:40;96692.22;;;10.40;58.36
61324;BME280;47203;48.428;11.974;2023-04-16T05:24:45;96692.22;;;10.40;58.35
61324;BME280;47203;48.428;11.974;2023-04-16T05:26:50;96687.72;;;10.40;58.17
61324;BME280;47203;48.428;11.974;2023-04-16T05:28:55;96697.22;;;10.41;58.40
61324;BME280;47203;48.428;11.974;2023-04-16T05:31:02;96697.47;;;10.40;58.31
61324;BME280;47203;48.428;11.974;2023-04-16T05:33:07;96701.66;;;10.41;58.19
61324;BME280;47203;48.428;11.974;2023-04-16T05:35:12;96701.94;;;10.39;58.11
61324;BME280;47203;48.428;11.974;2023-04-16T05:37:18;96699.03;;;10.41;58.50
61324;BME280;47203;48.428;11.974;2023-04-16T05:39:23;96704.84;;;10.43;58.52
61324;BME280;47203;48.428;11.974;2023-04-16T05:41:28;96705.09;;;10.41;58.18
61324;BME280;47203;48.428;11.974;2023-04-16T05:43:33;96702.47;;;10.41;58.45
61324;BME280;47203;48.428;11.974;2023-04-16T05:45:37;96707.47;;;10.43;58.39
61324;BME280;47203;48.428;11.974;2023-04-16T05:47:45;96711.94;;;10.42;58.38
61324;BME280;47203;48.428;11.974;2023-04-16T05:49:50;96701.41;;;10.42;58.29
61324;BME280;47203;48.428;11.974;2023-04-16T05:51:55;96710.38;;;10.41;58.53
61324;BME280;47203;48.428;11.974;2023-04-16T05:54:00;96705.38;;;10.40;58.66
61324;BME280;47203;48.428;11.974;2023-04-16T05:56:06;96707.19;;;10.39;58.68
61324;BME280;47203;48.428;11.974;2023-04-16T05:58:11;96708.78;;;10.40;58.69
61324;BME280;47203;48.428;11.974;2023-04-16T06:00:16;96710.63;;;10.40;58.62
61324;BME280;47203;48.428;11.974;2023-04-16T06:02:21;96704.03;;;10.42;58.64
61324;BME280;47203;48.428;11.974;2023-04-16T06:04:29;96714.81;;;10.41;58.75
61324;BME280;47203;48.428;11.974;2023-04-16T06:06:34;96718.78;;;10.38;58.47
61324;BME280;47203;48.428;11.974;2023-04-16T06:08:39;96717.97;;;10.38;58.44
61324;BME280;47203;48.428;11.974;2023-04-16T06:10:45;96714.31;;;10.39;58.81
61324;BME280;47203;48.428;11.974;2023-04-16T06:12:50;96713.28;;;10.40;58.58
61324;BME280;47203;48.428;11.974;2023-04-16T06:14:55;96714.03;;;10.40;58.88
61324;BME280;47203;48.428;11.974;2023-04-16T06:17:00;96718.25;;;10.41;58.53
61324;BME280;47203;48.428;11.974;2023-04-16T06:19:05;96721.69;;;10.42;58.60
61324;BME280;47203;48.428;11.974;2023-04-16T06:21:13;96719.31;;;10.40;58.86
61324;BME280;47203;48.428;11.974;2023-04-16T06:23:18;96720.09;;;10.41;58.91
61324;BME280;47203;48.428;11.974;2023-04-16T06:25:22;96721.16;;;10.40;58.87
61324;BME280;47203;48.428;11.974;2023-04-16T06:27:27;96726.16;;;10.41;58.68
61324;BME280;47203;48.428;11.974;2023-04-16T06:29:32;96726.41;;;10.45;58.76
61324;BME280;47203;48.428;11.974;2023-04-16T06:31:42;96721.41;;;10.43;58.62
61324;BME280;47203;48.428;11.974;2023-04-16T06:33:47;96727.44;;;10.44;59.10
61324;BME280;47203;48.428;11.974;2023-04-16T06:35:52;96725.63;;;10.44;58.90
61324;BME280;47203;48.428;11.974;2023-04-16T06:38:00;96729.03;;;10.45;59.05
61324;BME280;47203;48.428;11.974;2023-04-16T06:40:05;96732.72;;;10.49;58.72
61324;BME280;47203;48.428;11.974;2023-04-16T06:42:11;96735.09;;;10.51;59.07
61324;BME280;47203;48.428;11.974;2023-04-16T06:44:16;96736.69;;;10.52;58.68
61324;BME280;47203;48.428;11.974;2023-04-16T06:46:21;96737.19;;;10.54;58.84
61324;BME280;47203;48.428;11.974;2023-04-16T06:48:26;96742.19;;;10.55;58.73
61324;BME280;47203;48.428;11.974;2023-04-16T06:50:31;96739.56;;;10.55;58.65
61324;BME280;47203;48.428;11.974;2023-04-16T06:52:36;96744.84;;;10.55;58.94
61324;BME280;47203;48.428;11.974;2023-04-16T06:54:44;96736.66;;;10.57;58.83
61324;BME280;47203;48.428;11.974;2023-04-16T06:56:49;96746.16;;;10.58;58.79
61324;BME280;47203;48.428;11.974;2023-04-16T06:58:53;96746.66;;;10.60;58.99
61324;BME280;47203;48.428;11.974;2023-04-16T07:00:59;96746.66;;;10.60;59.05
61324;BME280;47203;48.428;11.974;2023-04-16T07:03:04;96742.22;;;10.60;58.81
61324;BME280;47203;48.428;11.974;2023-04-16T07:05:10;96754.03;;;10.63;58.98
61324;BME280;47203;48.428;11.974;2023-04-16T07:07:14;96744.06;;;10.65;59.01
61324;BME280;47203;48.428;11.974;2023-04-16T07:09:19;96745.38;;;10.68;59.15
61324;BME280;47203;48.428;11.974;2023-04-16T07:11:27;96747.75;;;10.69;58.88
61324;BME280;47203;48.428;11.974;2023-04-16T07:13:32;96751.16;;;10.70;58.79
61324;BME280;47203;48.428;11.974;2023-04-16T07:15:37;96745.88;;;10.70;59.17
61324;BME280;47203;48.428;11.974;2023-04-16T07:17:42;96742.22;;;10.71;58.97
61324;BME280;47203;48.428;11.974;2023-04-16T07:19:47;96743.78;;;10.72;59.12
61324;BME280;47203;48.428;11.974;2023-04-16T07:21:52;96749.84;;;10.72;59.18
61324;BME280;47203;48.428;11.974;2023-04-16T07:23:57;96746.16;;;10.73;59.17
61324;BME280;47203;48.428;11.974;2023-04-16T07:26:02;96749.81;;;10.77;59.15
61324;BME280;47203;48.428;11.974;2023-04-16T07:28:10;96746.94;;;10.79;59.11
61324;BME280;47203;48.428;11.974;2023-04-16T07:30:17;96743.00;;;10.81;59.33
61324;BME280;47203;48.428;11.974;2023-04-16T07:32:22;96750.34;;;10.85;59.01
61324;BME280;47203;48.428;11.974;2023-04-16T07:34:27;96750.91;;;10.87;59.15
61324;BME280;47203;48.428;11.974;2023-04-16T07:36:32;96748.50;;;10.90;59.16
61324;BME280;47203;48.428;11.974;2023-04-16T07:38:37;96751.69;;;10.92;59.14
61324;BME280;47203;48.428;11.974;2023-04-16T07:40:42;96752.72;;;10.96;59.16
61324;BME280;47203;48.428;11.974;2023-04-16T07:42:47;96742.19;;;11.02;59.04
61324;BME280;47203;48.428;11.974;2023-04-16T07:44:54;96762.72;;;11.05;59.32
61324;BME280;47203;48.428;11.974;2023-04-16T07:46:59;96749.81;;;11.08;59.25
61324;BME280;47203;48.428;11.974;2023-04-16T07:49:06;96759.28;;;11.09;58.96
61324;BME280;47203;48.428;11.974;2023-04-16T07:51:11;96754.56;;;11.11;59.24
61324;BME280;47203;48.428;11.974;2023-04-16T07:53:16;96760.84;;;11.15;59.10
61324;BME280;47203;48.428;11.974;2023-04-16T07:55:21;96761.38;;;11.17;59.25
61324;BME280;47203;48.428;11.974;2023-04-16T07:57:26;96760.84;;;11.21;59.11
61324;BME280;47203;48.428;11.974;2023-04-16T07:59:31;96767.44;;;11.23;59.27
61324;BME280;47203;48.428;11.974;2023-04-16T08:01:38;96763.50;;;11.26;59.46
61324;BME280;47203;48.428;11.974;2023-04-16T08:03:43;96767.41;;;11.28;59.08
61324;BME280;47203;48.428;11.974;2023-04-16T08:05:48;96774.00;;;11.31;59.20
61324;BME280;47203;48.428;11.974;2023-04-16T08:07:53;96766.09;;;11.31;59.26
61324;BME280;47203;48.428;11.974;2023-04-16T08:09:58;96773.72;;;11.32;58.86
61324;BME280;47203;48.428;11.974;2023-04-16T08:12:03;96777.69;;;11.35;58.90
61324;BME280;47203;48.428;11.974;2023-04-16T08:14:08;96785.84;;;11.39;59.22
61324;BME280;47203;48.428;11.974;2023-04-16T08:16:13;96793.75;;;11.39;58.96
61324;BME280;47203;48.428;11.974;2023-04-16T08:18:21;96788.75;;;11.37;58.96
61324;BME280;47203;48.428;11.974;2023-04-16T08:20:26;96797.19;;;11.34;58.46
61324;BME280;47203;48.428;11.974;2023-04-16T08:22:31;96801.41;;;11.30;58.49
61324;BME280;47203;48.428;11.974;2023-04-16T08:24:36;96796.16;;;11.25;58.88
61324;BME280;47203;48.428;11.974;2023-04-16T08:26:41;96798.25;;;11.23;58.88
61324;BME280;47203;48.428;11.974;2023-04-16T08:28:46;96799.84;;;11.24;58.89
61324;BME280;47203;48.428;11.974;2023-04-16T08:30:51;96801.41;;;11.25;58.76
61324;BME280;47203;48.428;11.974;2023-04-16T08:32:56;96800.38;;;11.26;58.68
61324;BME280;47203;48.428;11.974;2023-04-16T08:35:05;96802.75;;;11.27;58.84
61324;BME280;47203;48.428;11.974;2023-04-16T08:37:10;96811.16;;;11.29;58.85
61324;BME280;47203;48.428;11.974;2023-04-16T08:39:15;96809.84;;;11.32;59.11
61324;BME280;47203;48.428;11.974;2023-04-16T08:41:21;96813.25;;;11.32;58.67
61324;BME280;47203;48.428;11.974;2023-04-16T08:43:30;96814.31;;;11.31;58.51
61324;BME280;47203;48.428;11.974;2023-04-16T08:45:37;96814.84;;;11.33;58.73
61324;BME280;47203;48.428;11.974;2023-04-16T08:47:45;96814.59;;;11.35;58.89
61324;BME280;47203;48.428;11.974;2023-04-16T08:49:51;96819.81;;;11.40;58.78
61324;BME280;47203;48.428;11.974;2023-04-16T08:52:05;96816.41;;;11.45;58.69
61324;BME280;47203;48.428;11.974;2023-04-16T08:54:14;96825.34;;;11.49;58.64
61324;BME280;47203;48.428;11.974;2023-04-16T08:56:22;96819.81;;;11.56;58.49
61324;BME280;47203;48.428;11.974;2023-04-16T08:58:28;96819.25;;;11.59;58.75
61324;BME280;47203;48.428;11.974;2023-04-16T09:00:36;96822.16;;;11.62;58.88
61324;BME280;47203;48.428;11.974;2023-04-16T09:02:43;96823.47;;;11.65;58.66
61324;BME280;47203;48.428;11.974;2023-04-16T09:04:48;96819.50;;;11.67;58.49
61324;BME280;47203;48.428;11.974;2023-04-16T09:06:55;96825.06;;;11.71;58.55
61324;BME280;47203;48.428;11.974;2023-04-16T09:09:05;96829.25;;;11.72;58.60
61324;BME280;47203;48.428;11.974;2023-04-16T09:11:12;96826.34;;;11.74;58.30
61324;BME280;47203;48.428;11.974;2023-04-16T09:13:18;96826.34;;;11.74;58.36
61324;BME280;47203;48.428;11.974;2023-04-16T09:15:25;96826.06;;;11.75;58.14
61324;BME280;47203;48.428;11.974;2023-04-16T09:17:30;96835.06;;;11.74;58.06
61324;BME280;47203;48.428;11.974;2023-04-16T09:19:35;96830.06;;;11.73;58.24
61324;BME280;47203;48.428;11.974;2023-04-16T09:21:40;96832.41;;;11.74;57.89
61324;BME280;47203;48.428;11.974;2023-04-16T09:23:46;96833.72;;;11.77;58.20
61324;BME280;47203;48.428;11.974;2023-04-16T09:25:53;96832.16;;;11.76;58.13
61324;BME280;47203;48.428;11.974;2023-04-16T09:27:59;96836.06;;;11.78;57.88
61324;BME280;47203;48.428;11.974;2023-04-16T09:30:17;96835.03;;;11.79;58.00
61324;BME280;47203;48.428;11.974;2023-04-16T09:32:24;96838.72;;;11.83;57.97
61324;BME280;47203;48.428;11.974;2023-04-16T09:34:31;96830.81;;;11.83;57.82
61324;BME280;47203;48.428;11.974;2023-04-16T09:36:36;96839.22;;;11.85;57.94
61324;BME280;47203;48.428;11.974;2023-04-16T09:38:45;96837.38;;;11.86;57.88
61324;BME280;47203;48.428;11.974;2023-04-16T09:41:05;96844.50;;;11.85;57.67
61324;BME280;47203;48.428;11.974;2023-04-16T09:43:11;96832.91;;;11.86;57.76
61324;BME280;47203;48.428;11.974;2023-04-16T09:45:16;96840.81;;;11.86;57.88
61324;BME280;47203;48.428;11.974;2023-04-16T09:47:22;96837.34;;;11.91;58.01
61324;BME280;47203;48.428;11.974;2023-04-16T09:49:27;96833.66;;;11.92;57.59
61324;BME280;47203;48.428;11.974;2023-04-16T09:51:35;96833.66;;;11.92;57.34
61324;BME280;47203;48.428;11.974;2023-04-16T09:53:40;96835.78;;;11.95;57.72
61324;BME280;47203;48.428;11.974;2023-04-16T09:55:45;96841.34;;;11.99;57.38
61324;BME280;47203;48.428;11.974;2023-04-16T09:58:00;96845.25;;;12.01;57.20
61324;BME280;47203;48.428;11.974;2023-04-16T10:00:07;96836.56;;;12.01;57.39
61324;BME280;47203;48.428;11.974;2023-04-16T10:02:12;96839.72;;;12.03;57.53
61324;BME280;47203;48.428;11.974;2023-04-16T10:04:17;96837.06;;;12.03;57.15
61324;BME280;47203;48.428;11.974;2023-04-16T10:06:23;96846.31;;;12.05;57.47
61324;BME280;47203;48.428;11.974;2023-04-16T10:08:28;96839.72;;;12.08;57.20
61324;BME280;47203;48.428;11.974;2023-04-16T10:10:33;96843.66;;;12.11;57.37
61324;BME280;47203;48.428;11.974;2023-04-16T10:12:38;96844.94;;;12.13;57.38
61324;BME280;47203;48.428;11.974;2023-04-16T10:14:47;96849.72;;;12.16;56.94
61324;BME280;47203;48.428;11.974;2023-04-16T10:16:52;96862.63;;;12.18;56.85
61324;BME280;47203;48.428;11.974;2023-04-16T10:18:58;96861.81;;;12.17;56.83
61324;BME280;47203;48.428;11.974;2023-04-16T10:21:04;96858.13;;;12.18;56.83
61324;BME280;47203;48.428;11.974;2023-04-16T10:23:09;96858.13;;;12.18;56.65
61324;BME280;47203;48.428;11.974;2023-04-16T10:25:15;96857.34;;;12.18;56.81
61324;BME280;47203;48.428;11.974;2023-04-16T10:27:21;96856.28;;;12.19;56.33
61324;BME280;47203;48.428;11.974;2023-04-16T10:29:28;96858.63;;;12.20;56.48
61324;BME280;47203;48.428;11.974;2023-04-16T10:31:36;96858.91;;;12.19;56.27
61324;BME280;47203;48.428;11.974;2023-04-16T10:33:42;96861.03;;;12.17;56.47
61324;BME280;47203;48.428;11.974;2023-04-16T10:35:49;96853.41;;;12.15;56.41
61324;BME280;47203;48.428;11.974;2023-04-16T10:38:20;96863.16;;;12.15;56.52
61324;BME280;47203;48.428;11.974;2023-04-16T10:40:26;96860.00;;;12.18;56.28
61324;BME280;47203;48.428;11.974;2023-04-16T10:42:31;96867.91;;;12.18;56.45
61324;BME280;47203;48.428;11.974;2023-04-16T10:44:36;96861.56;;;12.19;56.35
61324;BME280;47203;48.428;11.974;2023-04-16T10:46:48;96856.81;;;12.21;56.30
61324;BME280;47203;48.428;11.974;2023-04-16T10:48:54;96868.16;;;12.21;56.10
61324;BME280;47203;48.428;11.974;2023-04-16T10:50:59;96864.72;;;12.21;55.78
61324;BME280;47203;48.428;11.974;2023-04-16T10:53:18;96866.06;;;12.18;56.05
61324;BME280;47203;48.428;11.974;2023-04-16T10:55:23;96868.69;;;12.18;56.13
61324;BME280;47203;48.428;11.974;2023-04-16T10:57:28;96863.94;;;12.15;55.82
61324;BME280;47203;48.428;11.974;2023-04-16T10:59:35;96862.91;;;12.16;55.81